Latty, Ohio
Current Conditions -  °F | °C
As of 6:53 PM on Wednesday 22 Oct 2014 (Local Time) from KDFI Reporting Station
Scattered Clouds Scattered Clouds  
Wind Chill: 47°   Ceiling: Unl
Heat Index: 47°   Visibility: 10mi
Dew Point: 39°   Wind: 3mph
Humidity: 74%   Direction: 340°NNW
Pressure: 30.3"   Gusts: NA
Location:  41.09°N, 84.59°W
Report Text: KDFI 222253Z AUTO 34003KT 10SM SCT023 08/04 A3030 RMK AO2 SLP265 T00830039
Loading
Personal Weather Stations






























Interactive Weather Map
Tropical Storm Tracking
New forecast layout! Learn more

10-Day Weather Forecast

Advertisements
Track Severe Weather on mobile